Pagina principală
METAR-TAF:

METAR-TAF

Aeroporturi :

Liberia, Costa Rica

Latitudine: 10-37N, longitudine: 085-26W, elevație: 80 m

Observații meteo curente

Raportul a fost făcut în urmă cu 27 de minute, la 15:00 UTC
Vânt 1 kt de la Vest/Sud-vest
Temperatură 28°C
Umiditate 58%
Presiune 1014 hPa
Vizibilitate de 10 km sau mai mult
nu există nori sub 1.500 m și nici cumulonimbus

METAR: MRLB 241500Z 25001KT CAVOK 28/19 A2994

Ora: 09:27 (15:27 UTC)

Prognoză

Raportul a fost făcut în urmă cu 4 ore și 27 de minute, la 11:00 UTC
Prognoză valabilă de la 24 ora 12 UTC la 25 ora 12 UTC
Vânt 15 kt de la Est
Vizibilitate de 10 km sau mai mult
nu există nori sub 1.500 m și nici cumulonimbus
Temporar
de la 24 ora 22 UTC la 25 ora 04 UTC
Vânt 5 kt de la Vest
Temporar
de la 25 ora 08 UTC la 25 ora 12 UTC
Vânt 4 kt de la Vest/Nord-vest

TAF: MRLB 241100Z 2412/2512 08015KT CAVOK TX35/2420Z TN20/2511Z TEMPO 2422/2504 28005KT TEMPO 2508/2512 29004KT

Observații și prognoze meteo pentru peste 4.000 de aeroporturi (rapoarte METAR și TAF).

Stațiile disponibile sunt reprezentate pe hartă prin puncte galbene și roșii.

Țineți indicatorul mouse-ului pe punctul dorit pentru a vedea denumirea stației.

Apoi, faceți clic pentru a vedea observațiile și prognozele meteorologice.

Pentru a schimba harta: Pentru mărire, faceți clic pe butoanele verzi cu cruce neagră; pentru micșorare, pe butonul verde cu o liniuță; pentru hărți învecinate, pe săgețile verzi.


METAR-TAF: